sensor_id;sensor_type;location;lat;lon;timestamp;P1;durP1;ratioP1;P2;durP2;ratioP2
25319;SDS011;13256;49.012;8.610;2023-09-08T00:00:31;5.57;;;3.88;;
25319;SDS011;13256;49.012;8.610;2023-09-08T00:02:58;8.80;;;4.65;;
25319;SDS011;13256;49.012;8.610;2023-09-08T00:05:33;6.68;;;4.13;;
25319;SDS011;13256;49.012;8.610;2023-09-08T00:08:03;5.85;;;4.30;;
25319;SDS011;13256;49.012;8.610;2023-09-08T00:10:30;7.57;;;4.28;;
25319;SDS011;13256;49.012;8.610;2023-09-08T00:12:57;7.82;;;4.55;;
25319;SDS011;13256;49.012;8.610;2023-09-08T00:18:27;5.05;;;4.10;;
25319;SDS011;13256;49.012;8.610;2023-09-08T00:23:52;6.45;;;3.75;;
25319;SDS011;13256;49.012;8.610;2023-09-08T00:26:20;5.65;;;3.78;;
25319;SDS011;13256;49.012;8.610;2023-09-08T00:28:52;9.20;;;4.53;;
25319;SDS011;13256;49.012;8.610;2023-09-08T00:31:21;5.80;;;4.57;;
25319;SDS011;13256;49.012;8.610;2023-09-08T00:33:48;7.80;;;4.10;;
25319;SDS011;13256;49.012;8.610;2023-09-08T00:36:15;7.15;;;4.25;;
25319;SDS011;13256;49.012;8.610;2023-09-08T00:38:45;7.05;;;4.45;;
25319;SDS011;13256;49.012;8.610;2023-09-08T00:41:13;8.02;;;4.60;;
25319;SDS011;13256;49.012;8.610;2023-09-08T00:43:41;7.88;;;4.18;;
25319;SDS011;13256;49.012;8.610;2023-09-08T00:46:09;6.63;;;4.03;;
25319;SDS011;13256;49.012;8.610;2023-09-08T00:48:43;6.90;;;4.43;;
25319;SDS011;13256;49.012;8.610;2023-09-08T00:51:11;5.72;;;4.20;;
25319;SDS011;13256;49.012;8.610;2023-09-08T00:53:38;7.60;;;4.40;;
25319;SDS011;13256;49.012;8.610;2023-09-08T00:56:08;5.78;;;4.07;;
25319;SDS011;13256;49.012;8.610;2023-09-08T00:58:40;6.28;;;4.30;;
25319;SDS011;13256;49.012;8.610;2023-09-08T01:01:09;7.68;;;4.53;;
25319;SDS011;13256;49.012;8.610;2023-09-08T01:03:38;11.18;;;4.15;;
25319;SDS011;13256;49.012;8.610;2023-09-08T01:06:06;6.60;;;4.32;;
25319;SDS011;13256;49.012;8.610;2023-09-08T01:08:34;7.38;;;4.75;;
25319;SDS011;13256;49.012;8.610;2023-09-08T01:11:07;9.25;;;4.32;;
25319;SDS011;13256;49.012;8.610;2023-09-08T01:13:34;6.05;;;4.22;;
25319;SDS011;13256;49.012;8.610;2023-09-08T01:16:14;6.03;;;4.20;;
25319;SDS011;13256;49.012;8.610;2023-09-08T01:18:41;6.65;;;4.45;;
25319;SDS011;13256;49.012;8.610;2023-09-08T01:21:24;6.78;;;4.28;;
25319;SDS011;13256;49.012;8.610;2023-09-08T01:27:20;8.52;;;4.20;;
25319;SDS011;13256;49.012;8.610;2023-09-08T01:29:51;7.10;;;4.38;;
25319;SDS011;13256;49.012;8.610;2023-09-08T01:32:20;9.23;;;4.75;;
25319;SDS011;13256;49.012;8.610;2023-09-08T01:34:51;8.00;;;4.43;;
25319;SDS011;13256;49.012;8.610;2023-09-08T01:37:21;6.85;;;4.40;;
25319;SDS011;13256;49.012;8.610;2023-09-08T01:39:58;7.50;;;4.60;;
25319;SDS011;13256;49.012;8.610;2023-09-08T01:42:28;7.95;;;5.07;;
25319;SDS011;13256;49.012;8.610;2023-09-08T01:44:58;9.38;;;5.05;;
25319;SDS011;13256;49.012;8.610;2023-09-08T01:47:25;6.60;;;4.57;;
25319;SDS011;13256;49.012;8.610;2023-09-08T01:56:14;8.45;;;4.65;;
25319;SDS011;13256;49.012;8.610;2023-09-08T01:58:44;7.78;;;4.28;;
25319;SDS011;13256;49.012;8.610;2023-09-08T02:01:12;8.35;;;4.72;;
25319;SDS011;13256;49.012;8.610;2023-09-08T02:03:40;10.45;;;5.40;;
25319;SDS011;13256;49.012;8.610;2023-09-08T02:06:15;6.78;;;4.63;;
25319;SDS011;13256;49.012;8.610;2023-09-08T02:11:42;8.25;;;4.70;;
25319;SDS011;13256;49.012;8.610;2023-09-08T02:26:03;8.35;;;5.70;;
25319;SDS011;13256;49.012;8.610;2023-09-08T02:28:30;8.50;;;5.40;;
25319;SDS011;13256;49.012;8.610;2023-09-08T02:30:58;8.25;;;4.78;;
25319;SDS011;13256;49.012;8.610;2023-09-08T02:33:25;8.15;;;5.25;;
25319;SDS011;13256;49.012;8.610;2023-09-08T02:36:01;7.47;;;4.80;;
25319;SDS011;13256;49.012;8.610;2023-09-08T02:38:32;12.90;;;4.47;;
25319;SDS011;13256;49.012;8.610;2023-09-08T02:41:02;9.95;;;5.40;;
25319;SDS011;13256;49.012;8.610;2023-09-08T02:43:36;8.68;;;4.95;;
25319;SDS011;13256;49.012;8.610;2023-09-08T02:46:03;5.82;;;4.63;;
25319;SDS011;13256;49.012;8.610;2023-09-08T02:48:43;8.73;;;5.47;;
25319;SDS011;13256;49.012;8.610;2023-09-08T02:51:13;9.02;;;5.20;;
25319;SDS011;13256;49.012;8.610;2023-09-08T02:53:42;7.88;;;4.60;;
25319;SDS011;13256;49.012;8.610;2023-09-08T02:56:11;7.40;;;5.13;;
25319;SDS011;13256;49.012;8.610;2023-09-08T02:58:42;8.30;;;4.85;;
25319;SDS011;13256;49.012;8.610;2023-09-08T03:03:43;7.18;;;4.90;;
25319;SDS011;13256;49.012;8.610;2023-09-08T03:09:12;8.45;;;4.38;;
25319;SDS011;13256;49.012;8.610;2023-09-08T03:11:45;12.60;;;5.05;;
25319;SDS011;13256;49.012;8.610;2023-09-08T03:14:12;8.48;;;4.95;;
25319;SDS011;13256;49.012;8.610;2023-09-08T03:16:40;9.13;;;4.95;;
25319;SDS011;13256;49.012;8.610;2023-09-08T03:19:16;7.93;;;5.07;;
25319;SDS011;13256;49.012;8.610;2023-09-08T03:21:44;10.00;;;4.90;;
25319;SDS011;13256;49.012;8.610;2023-09-08T03:24:13;6.40;;;4.80;;
25319;SDS011;13256;49.012;8.610;2023-09-08T03:26:42;9.05;;;5.50;;
25319;SDS011;13256;49.012;8.610;2023-09-08T03:29:12;9.23;;;4.88;;
25319;SDS011;13256;49.012;8.610;2023-09-08T03:31:39;9.13;;;4.75;;
25319;SDS011;13256;49.012;8.610;2023-09-08T03:34:09;7.75;;;4.90;;
25319;SDS011;13256;49.012;8.610;2023-09-08T03:36:38;8.15;;;5.45;;
25319;SDS011;13256;49.012;8.610;2023-09-08T03:39:13;10.70;;;4.93;;
25319;SDS011;13256;49.012;8.610;2023-09-08T03:41:43;8.43;;;5.28;;
25319;SDS011;13256;49.012;8.610;2023-09-08T03:44:11;9.10;;;4.55;;
25319;SDS011;13256;49.012;8.610;2023-09-08T03:46:41;11.43;;;5.00;;
25319;SDS011;13256;49.012;8.610;2023-09-08T03:49:08;9.43;;;4.97;;
25319;SDS011;13256;49.012;8.610;2023-09-08T03:51:37;7.30;;;5.18;;
25319;SDS011;13256;49.012;8.610;2023-09-08T03:54:04;7.95;;;4.53;;
25319;SDS011;13256;49.012;8.610;2023-09-08T03:59:32;6.70;;;4.88;;
25319;SDS011;13256;49.012;8.610;2023-09-08T04:02:00;9.60;;;5.57;;
25319;SDS011;13256;49.012;8.610;2023-09-08T04:04:32;9.00;;;5.23;;
25319;SDS011;13256;49.012;8.610;2023-09-08T04:07:00;7.00;;;5.00;;
25319;SDS011;13256;49.012;8.610;2023-09-08T04:09:33;16.93;;;5.40;;
25319;SDS011;13256;49.012;8.610;2023-09-08T04:12:01;8.40;;;5.35;;
25319;SDS011;13256;49.012;8.610;2023-09-08T04:14:31;6.05;;;4.30;;
25319;SDS011;13256;49.012;8.610;2023-09-08T04:17:00;9.25;;;5.32;;
25319;SDS011;13256;49.012;8.610;2023-09-08T04:19:35;7.18;;;5.20;;
25319;SDS011;13256;49.012;8.610;2023-09-08T04:22:16;8.35;;;5.22;;
25319;SDS011;13256;49.012;8.610;2023-09-08T04:27:39;7.20;;;5.18;;
25319;SDS011;13256;49.012;8.610;2023-09-08T04:30:09;7.82;;;5.38;;
25319;SDS011;13256;49.012;8.610;2023-09-08T04:32:36;10.43;;;6.05;;
25319;SDS011;13256;49.012;8.610;2023-09-08T04:35:07;9.40;;;5.20;;
25319;SDS011;13256;49.012;8.610;2023-09-08T04:37:35;9.38;;;5.60;;
25319;SDS011;13256;49.012;8.610;2023-09-08T04:40:03;10.40;;;5.90;;
25319;SDS011;13256;49.012;8.610;2023-09-08T04:42:36;7.75;;;5.25;;
25319;SDS011;13256;49.012;8.610;2023-09-08T04:45:04;11.60;;;5.50;;
25319;SDS011;13256;49.012;8.610;2023-09-08T04:47:36;8.30;;;5.57;;
25319;SDS011;13256;49.012;8.610;2023-09-08T04:50:08;9.52;;;6.03;;
25319;SDS011;13256;49.012;8.610;2023-09-08T04:52:36;8.30;;;5.25;;
25319;SDS011;13256;49.012;8.610;2023-09-08T04:55:04;8.27;;;5.65;;
25319;SDS011;13256;49.012;8.610;2023-09-08T04:57:32;8.80;;;5.40;;
25319;SDS011;13256;49.012;8.610;2023-09-08T05:00:02;7.00;;;5.43;;
25319;SDS011;13256;49.012;8.610;2023-09-08T05:02:30;10.18;;;5.82;;
25319;SDS011;13256;49.012;8.610;2023-09-08T05:05:10;8.73;;;5.43;;
25319;SDS011;13256;49.012;8.610;2023-09-08T05:07:37;7.68;;;5.40;;
25319;SDS011;13256;49.012;8.610;2023-09-08T05:10:07;8.18;;;4.97;;
25319;SDS011;13256;49.012;8.610;2023-09-08T05:12:37;10.45;;;5.47;;
25319;SDS011;13256;49.012;8.610;2023-09-08T05:15:08;10.10;;;5.57;;
25319;SDS011;13256;49.012;8.610;2023-09-08T05:17:44;9.80;;;5.22;;
25319;SDS011;13256;49.012;8.610;2023-09-08T05:23:08;11.75;;;5.55;;
25319;SDS011;13256;49.012;8.610;2023-09-08T05:25:37;10.50;;;5.97;;
25319;SDS011;13256;49.012;8.610;2023-09-08T05:30:53;8.38;;;5.18;;
25319;SDS011;13256;49.012;8.610;2023-09-08T05:33:25;8.05;;;5.32;;
25319;SDS011;13256;49.012;8.610;2023-09-08T05:35:53;10.45;;;6.05;;
25319;SDS011;13256;49.012;8.610;2023-09-08T05:38:21;7.82;;;5.43;;
25319;SDS011;13256;49.012;8.610;2023-09-08T05:40:48;7.72;;;5.65;;
25319;SDS011;13256;49.012;8.610;2023-09-08T05:43:20;8.43;;;5.45;;
25319;SDS011;13256;49.012;8.610;2023-09-08T05:45:53;9.05;;;5.47;;
25319;SDS011;13256;49.012;8.610;2023-09-08T05:50:51;8.00;;;5.45;;
25319;SDS011;13256;49.012;8.610;2023-09-08T05:53:22;12.05;;;5.65;;
25319;SDS011;13256;49.012;8.610;2023-09-08T05:55:49;10.35;;;5.72;;
25319;SDS011;13256;49.012;8.610;2023-09-08T05:58:18;12.77;;;6.25;;
25319;SDS011;13256;49.012;8.610;2023-09-08T06:00:45;9.18;;;5.78;;
25319;SDS011;13256;49.012;8.610;2023-09-08T06:03:14;9.65;;;5.72;;
25319;SDS011;13256;49.012;8.610;2023-09-08T06:05:44;12.40;;;6.20;;
25319;SDS011;13256;49.012;8.610;2023-09-08T06:08:15;10.25;;;5.82;;
25319;SDS011;13256;49.012;8.610;2023-09-08T06:10:42;11.05;;;5.80;;
25319;SDS011;13256;49.012;8.610;2023-09-08T06:13:11;8.77;;;5.82;;
25319;SDS011;13256;49.012;8.610;2023-09-08T06:15:40;12.32;;;5.65;;
25319;SDS011;13256;49.012;8.610;2023-09-08T06:18:08;10.13;;;5.80;;
25319;SDS011;13256;49.012;8.610;2023-09-08T06:20:35;11.90;;;6.20;;
25319;SDS011;13256;49.012;8.610;2023-09-08T06:23:05;10.75;;;6.35;;
25319;SDS011;13256;49.012;8.610;2023-09-08T06:25:31;7.53;;;5.40;;
25319;SDS011;13256;49.012;8.610;2023-09-08T06:27:58;8.75;;;6.20;;
25319;SDS011;13256;49.012;8.610;2023-09-08T06:30:31;9.85;;;6.10;;
25319;SDS011;13256;49.012;8.610;2023-09-08T06:32:58;8.25;;;5.95;;
25319;SDS011;13256;49.012;8.610;2023-09-08T06:35:29;10.60;;;6.00;;
25319;SDS011;13256;49.012;8.610;2023-09-08T06:37:56;8.63;;;5.97;;
25319;SDS011;13256;49.012;8.610;2023-09-08T06:40:28;11.75;;;6.20;;
25319;SDS011;13256;49.012;8.610;2023-09-08T06:42:58;11.77;;;6.60;;
25319;SDS011;13256;49.012;8.610;2023-09-08T06:48:45;9.18;;;5.80;;
25319;SDS011;13256;49.012;8.610;2023-09-08T06:51:36;7.93;;;5.65;;
25319;SDS011;13256;49.012;8.610;2023-09-08T06:54:05;10.70;;;6.70;;
25319;SDS011;13256;49.012;8.610;2023-09-08T06:56:40;9.23;;;5.82;;
25319;SDS011;13256;49.012;8.610;2023-09-08T06:59:09;9.45;;;5.63;;
25319;SDS011;13256;49.012;8.610;2023-09-08T07:01:43;9.05;;;6.07;;
25319;SDS011;13256;49.012;8.610;2023-09-08T07:04:11;12.95;;;6.60;;
25319;SDS011;13256;49.012;8.610;2023-09-08T07:06:39;9.98;;;5.93;;
25319;SDS011;13256;49.012;8.610;2023-09-08T07:09:08;9.88;;;6.10;;
25319;SDS011;13256;49.012;8.610;2023-09-08T07:11:38;8.05;;;5.45;;
25319;SDS011;13256;49.012;8.610;2023-09-08T07:14:11;13.05;;;6.07;;
25319;SDS011;13256;49.012;8.610;2023-09-08T07:16:40;12.60;;;6.65;;
25319;SDS011;13256;49.012;8.610;2023-09-08T07:22:01;11.55;;;6.38;;
25319;SDS011;13256;49.012;8.610;2023-09-08T07:24:31;10.90;;;6.38;;
25319;SDS011;13256;49.012;8.610;2023-09-08T07:27:01;10.93;;;5.93;;
25319;SDS011;13256;49.012;8.610;2023-09-08T07:29:28;8.98;;;5.47;;
25319;SDS011;13256;49.012;8.610;2023-09-08T07:31:56;7.35;;;5.18;;
25319;SDS011;13256;49.012;8.610;2023-09-08T07:34:23;10.32;;;5.55;;
25319;SDS011;13256;49.012;8.610;2023-09-08T07:36:50;8.63;;;5.60;;
25319;SDS011;13256;49.012;8.610;2023-09-08T07:39:20;12.63;;;6.00;;
25319;SDS011;13256;49.012;8.610;2023-09-08T07:41:47;8.20;;;5.03;;
25319;SDS011;13256;49.012;8.610;2023-09-08T07:44:15;8.63;;;5.57;;
25319;SDS011;13256;49.012;8.610;2023-09-08T07:46:44;7.70;;;5.47;;
25319;SDS011;13256;49.012;8.610;2023-09-08T07:49:14;15.38;;;5.50;;
25319;SDS011;13256;49.012;8.610;2023-09-08T07:51:54;9.93;;;6.03;;
25319;SDS011;13256;49.012;8.610;2023-09-08T07:54:21;7.82;;;5.72;;
25319;SDS011;13256;49.012;8.610;2023-09-08T07:56:48;10.45;;;5.75;;
25319;SDS011;13256;49.012;8.610;2023-09-08T07:59:24;9.52;;;5.60;;
25319;SDS011;13256;49.012;8.610;2023-09-08T08:01:51;9.27;;;5.85;;
25319;SDS011;13256;49.012;8.610;2023-09-08T08:04:17;11.05;;;5.45;;
25319;SDS011;13256;49.012;8.610;2023-09-08T08:06:45;11.90;;;5.88;;
25319;SDS011;13256;49.012;8.610;2023-09-08T08:09:18;12.02;;;6.15;;
25319;SDS011;13256;49.012;8.610;2023-09-08T08:11:47;12.82;;;5.93;;
25319;SDS011;13256;49.012;8.610;2023-09-08T08:14:14;8.27;;;5.80;;
25319;SDS011;13256;49.012;8.610;2023-09-08T08:16:41;11.55;;;5.82;;
25319;SDS011;13256;49.012;8.610;2023-09-08T08:19:10;10.45;;;5.82;;
25319;SDS011;13256;49.012;8.610;2023-09-08T08:21:40;11.65;;;7.60;;
25319;SDS011;13256;49.012;8.610;2023-09-08T08:24:09;13.43;;;6.53;;
25319;SDS011;13256;49.012;8.610;2023-09-08T08:26:39;9.63;;;5.53;;
25319;SDS011;13256;49.012;8.610;2023-09-08T08:29:09;11.48;;;5.85;;
25319;SDS011;13256;49.012;8.610;2023-09-08T08:31:36;8.30;;;5.90;;
25319;SDS011;13256;49.012;8.610;2023-09-08T08:34:03;7.72;;;5.45;;
25319;SDS011;13256;49.012;8.610;2023-09-08T08:36:32;8.30;;;5.70;;
25319;SDS011;13256;49.012;8.610;2023-09-08T08:38:59;12.50;;;6.30;;
25319;SDS011;13256;49.012;8.610;2023-09-08T08:41:33;10.45;;;6.18;;
25319;SDS011;13256;49.012;8.610;2023-09-08T08:44:06;8.98;;;6.13;;
25319;SDS011;13256;49.012;8.610;2023-09-08T08:46:36;11.68;;;5.65;;
25319;SDS011;13256;49.012;8.610;2023-09-08T08:49:06;13.35;;;5.53;;
25319;SDS011;13256;49.012;8.610;2023-09-08T08:51:35;10.68;;;6.15;;
25319;SDS011;13256;49.012;8.610;2023-09-08T08:54:07;10.05;;;6.28;;
25319;SDS011;13256;49.012;8.610;2023-09-08T08:56:44;11.23;;;6.03;;
25319;SDS011;13256;49.012;8.610;2023-09-08T08:59:11;9.05;;;5.93;;
25319;SDS011;13256;49.012;8.610;2023-09-08T09:01:39;8.48;;;5.85;;
25319;SDS011;13256;49.012;8.610;2023-09-08T09:04:10;9.73;;;5.35;;
25319;SDS011;13256;49.012;8.610;2023-09-08T09:06:39;7.85;;;6.05;;
25319;SDS011;13256;49.012;8.610;2023-09-08T09:09:07;8.63;;;5.90;;
25319;SDS011;13256;49.012;8.610;2023-09-08T09:11:36;9.77;;;6.65;;
25319;SDS011;13256;49.012;8.610;2023-09-08T09:14:09;8.75;;;6.22;;
25319;SDS011;13256;49.012;8.610;2023-09-08T09:16:41;7.78;;;5.28;;
25319;SDS011;13256;49.012;8.610;2023-09-08T09:19:10;8.57;;;5.97;;
25319;SDS011;13256;49.012;8.610;2023-09-08T09:21:55;14.27;;;6.28;;
25319;SDS011;13256;49.012;8.610;2023-09-08T09:24:32;7.75;;;5.18;;
25319;SDS011;13256;49.012;8.610;2023-09-08T09:27:01;7.70;;;5.40;;
25319;SDS011;13256;49.012;8.610;2023-09-08T09:29:33;11.15;;;5.93;;
25319;SDS011;13256;49.012;8.610;2023-09-08T09:32:05;7.18;;;5.10;;
25319;SDS011;13256;49.012;8.610;2023-09-08T09:34:34;6.93;;;5.20;;
25319;SDS011;13256;49.012;8.610;2023-09-08T09:39:57;13.52;;;6.75;;
25319;SDS011;13256;49.012;8.610;2023-09-08T09:42:26;7.50;;;5.90;;
25319;SDS011;13256;49.012;8.610;2023-09-08T09:44:55;9.07;;;5.93;;
25319;SDS011;13256;49.012;8.610;2023-09-08T09:47:29;8.93;;;5.43;;
25319;SDS011;13256;49.012;8.610;2023-09-08T09:49:57;6.55;;;5.35;;
25319;SDS011;13256;49.012;8.610;2023-09-08T09:52:24;9.43;;;5.68;;
25319;SDS011;13256;49.012;8.610;2023-09-08T09:54:57;9.73;;;5.40;;
25319;SDS011;13256;49.012;8.610;2023-09-08T09:57:30;8.70;;;5.28;;
25319;SDS011;13256;49.012;8.610;2023-09-08T10:00:02;8.23;;;5.40;;
25319;SDS011;13256;49.012;8.610;2023-09-08T10:02:31;10.63;;;6.10;;
25319;SDS011;13256;49.012;8.610;2023-09-08T10:04:59;11.07;;;5.53;;
25319;SDS011;13256;49.012;8.610;2023-09-08T10:07:41;9.00;;;5.67;;
25319;SDS011;13256;49.012;8.610;2023-09-08T10:10:10;9.18;;;5.78;;
25319;SDS011;13256;49.012;8.610;2023-09-08T10:12:46;9.52;;;5.90;;
25319;SDS011;13256;49.012;8.610;2023-09-08T10:15:22;7.30;;;5.63;;
25319;SDS011;13256;49.012;8.610;2023-09-08T10:18:15;7.38;;;5.22;;
25319;SDS011;13256;49.012;8.610;2023-09-08T10:20:45;7.75;;;5.95;;
25319;SDS011;13256;49.012;8.610;2023-09-08T10:25:59;9.90;;;5.95;;
25319;SDS011;13256;49.012;8.610;2023-09-08T10:28:35;6.75;;;5.07;;
25319;SDS011;13256;49.012;8.610;2023-09-08T10:34:01;7.72;;;5.75;;
25319;SDS011;13256;49.012;8.610;2023-09-08T10:39:37;10.00;;;5.97;;
25319;SDS011;13256;49.012;8.610;2023-09-08T10:48:00;9.07;;;5.87;;
25319;SDS011;13256;49.012;8.610;2023-09-08T10:50:33;6.35;;;5.03;;
25319;SDS011;13256;49.012;8.610;2023-09-08T10:53:16;8.05;;;5.97;;
25319;SDS011;13256;49.012;8.610;2023-09-08T10:55:50;10.43;;;5.45;;
25319;SDS011;13256;49.012;8.610;2023-09-08T11:01:05;10.07;;;5.00;;
25319;SDS011;13256;49.012;8.610;2023-09-08T11:03:42;11.15;;;5.75;;
25319;SDS011;13256;49.012;8.610;2023-09-08T11:06:17;7.32;;;5.10;;
25319;SDS011;13256;49.012;8.610;2023-09-08T11:08:51;7.43;;;5.05;;
25319;SDS011;13256;49.012;8.610;2023-09-08T11:11:23;9.40;;;4.90;;
25319;SDS011;13256;49.012;8.610;2023-09-08T11:13:51;11.35;;;5.07;;
25319;SDS011;13256;49.012;8.610;2023-09-08T11:16:20;8.80;;;5.43;;
25319;SDS011;13256;49.012;8.610;2023-09-08T11:18:55;8.50;;;4.72;;
25319;SDS011;13256;49.012;8.610;2023-09-08T11:21:23;5.72;;;4.78;;
25319;SDS011;13256;49.012;8.610;2023-09-08T11:23:50;9.02;;;5.20;;
25319;SDS011;13256;49.012;8.610;2023-09-08T11:26:24;6.03;;;5.00;;
25319;SDS011;13256;49.012;8.610;2023-09-08T11:31:24;6.32;;;4.82;;
25319;SDS011;13256;49.012;8.610;2023-09-08T11:33:54;7.20;;;5.53;;
25319;SDS011;13256;49.012;8.610;2023-09-08T11:36:22;7.00;;;5.20;;
25319;SDS011;13256;49.012;8.610;2023-09-08T11:38:48;8.00;;;5.00;;
25319;SDS011;13256;49.012;8.610;2023-09-08T11:41:16;9.07;;;5.70;;
25319;SDS011;13256;49.012;8.610;2023-09-08T11:43:49;7.90;;;5.55;;
25319;SDS011;13256;49.012;8.610;2023-09-08T11:46:17;6.53;;;4.80;;
25319;SDS011;13256;49.012;8.610;2023-09-08T11:48:45;7.13;;;4.60;;
25319;SDS011;13256;49.012;8.610;2023-09-08T11:51:13;8.48;;;4.80;;
25319;SDS011;13256;49.012;8.610;2023-09-08T11:53:43;6.63;;;5.10;;
25319;SDS011;13256;49.012;8.610;2023-09-08T11:56:12;6.63;;;5.03;;
25319;SDS011;13256;49.012;8.610;2023-09-08T12:01:35;6.38;;;4.90;;
25319;SDS011;13256;49.012;8.610;2023-09-08T12:04:03;7.10;;;5.40;;
25319;SDS011;13256;49.012;8.610;2023-09-08T12:06:30;7.22;;;5.25;;
25319;SDS011;13256;49.012;8.610;2023-09-08T12:09:03;6.40;;;4.85;;
25319;SDS011;13256;49.012;8.610;2023-09-08T12:11:32;7.60;;;4.75;;
25319;SDS011;13256;49.012;8.610;2023-09-08T12:14:39;8.57;;;4.70;;
25319;SDS011;13256;49.012;8.610;2023-09-08T12:17:14;6.25;;;4.55;;
25319;SDS011;13256;49.012;8.610;2023-09-08T12:19:44;7.72;;;5.20;;
25319;SDS011;13256;49.012;8.610;2023-09-08T12:22:14;5.85;;;5.03;;
25319;SDS011;13256;49.012;8.610;2023-09-08T12:27:28;8.07;;;4.93;;
25319;SDS011;13256;49.012;8.610;2023-09-08T12:29:55;7.00;;;4.65;;
25319;SDS011;13256;49.012;8.610;2023-09-08T12:35:59;4.95;;;4.13;;
25319;SDS011;13256;49.012;8.610;2023-09-08T12:38:30;5.80;;;4.60;;
25319;SDS011;13256;49.012;8.610;2023-09-08T12:41:01;8.05;;;5.03;;
25319;SDS011;13256;49.012;8.610;2023-09-08T12:43:32;6.28;;;5.20;;
25319;SDS011;13256;49.012;8.610;2023-09-08T12:46:06;8.13;;;4.57;;
25319;SDS011;13256;49.012;8.610;2023-09-08T12:54:51;9.63;;;4.93;;
25319;SDS011;13256;49.012;8.610;2023-09-08T12:57:27;6.80;;;4.20;;
25319;SDS011;13256;49.012;8.610;2023-09-08T12:59:56;7.45;;;4.65;;
25319;SDS011;13256;49.012;8.610;2023-09-08T13:02:59;6.95;;;4.65;;
25319;SDS011;13256;49.012;8.610;2023-09-08T13:05:29;6.93;;;4.57;;
25319;SDS011;13256;49.012;8.610;2023-09-08T13:08:03;7.43;;;4.97;;
25319;SDS011;13256;49.012;8.610;2023-09-08T13:10:32;6.70;;;5.25;;
25319;SDS011;13256;49.012;8.610;2023-09-08T13:13:05;7.57;;;5.32;;
25319;SDS011;13256;49.012;8.610;2023-09-08T13:15:35;7.90;;;4.63;;
25319;SDS011;13256;49.012;8.610;2023-09-08T13:20:54;7.18;;;4.90;;
25319;SDS011;13256;49.012;8.610;2023-09-08T13:23:30;5.55;;;4.40;;
25319;SDS011;13256;49.012;8.610;2023-09-08T13:25:58;6.03;;;4.45;;
25319;SDS011;13256;49.012;8.610;2023-09-08T13:28:30;7.68;;;4.03;;
25319;SDS011;13256;49.012;8.610;2023-09-08T13:31:01;5.78;;;4.00;;
25319;SDS011;13256;49.012;8.610;2023-09-08T13:33:30;7.53;;;4.03;;
25319;SDS011;13256;49.012;8.610;2023-09-08T13:35:57;5.93;;;4.40;;
25319;SDS011;13256;49.012;8.610;2023-09-08T13:38:28;8.40;;;4.30;;
25319;SDS011;13256;49.012;8.610;2023-09-08T13:40:55;11.00;;;4.57;;
25319;SDS011;13256;49.012;8.610;2023-09-08T13:43:23;6.53;;;4.43;;
25319;SDS011;13256;49.012;8.610;2023-09-08T13:45:55;7.82;;;4.70;;
25319;SDS011;13256;49.012;8.610;2023-09-08T14:13:34;5.43;;;4.72;;
25319;SDS011;13256;49.012;8.610;2023-09-08T14:36:58;8.43;;;5.32;;
25319;SDS011;13256;49.012;8.610;2023-09-08T14:42:18;7.40;;;5.38;;
25319;SDS011;13256;49.012;8.610;2023-09-08T14:44:46;7.35;;;4.60;;
25319;SDS011;13256;49.012;8.610;2023-09-08T14:50:12;8.82;;;5.32;;
25319;SDS011;13256;49.012;8.610;2023-09-08T14:52:46;9.73;;;5.43;;
25319;SDS011;13256;49.012;8.610;2023-09-08T15:04:52;5.97;;;5.05;;
25319;SDS011;13256;49.012;8.610;2023-09-08T15:07:19;5.78;;;4.72;;
25319;SDS011;13256;49.012;8.610;2023-09-08T15:12:57;7.13;;;5.10;;
25319;SDS011;13256;49.012;8.610;2023-09-08T15:19:14;9.30;;;5.30;;
25319;SDS011;13256;49.012;8.610;2023-09-08T15:46:39;7.60;;;5.30;;
25319;SDS011;13256;49.012;8.610;2023-09-08T16:15:58;6.78;;;5.05;;
25319;SDS011;13256;49.012;8.610;2023-09-08T16:21:21;6.35;;;4.95;;
25319;SDS011;13256;49.012;8.610;2023-09-08T16:23:50;6.90;;;5.10;;
25319;SDS011;13256;49.012;8.610;2023-09-08T16:40:45;9.07;;;5.03;;
25319;SDS011;13256;49.012;8.610;2023-09-08T16:43:23;6.93;;;5.38;;
25319;SDS011;13256;49.012;8.610;2023-09-08T16:49:18;20.73;;;13.73;;
25319;SDS011;13256;49.012;8.610;2023-09-08T17:16:24;7.65;;;5.13;;
25319;SDS011;13256;49.012;8.610;2023-09-08T17:25:40;10.20;;;6.75;;
25319;SDS011;13256;49.012;8.610;2023-09-08T17:28:11;8.27;;;6.03;;
25319;SDS011;13256;49.012;8.610;2023-09-08T17:30:39;8.82;;;4.97;;
25319;SDS011;13256;49.012;8.610;2023-09-08T17:36:32;7.90;;;5.47;;
25319;SDS011;13256;49.012;8.610;2023-09-08T17:41:37;11.43;;;5.38;;
25319;SDS011;13256;49.012;8.610;2023-09-08T17:44:09;10.98;;;5.60;;
25319;SDS011;13256;49.012;8.610;2023-09-08T17:53:06;7.88;;;5.25;;
25319;SDS011;13256;49.012;8.610;2023-09-08T17:55:35;11.07;;;5.37;;
25319;SDS011;13256;49.012;8.610;2023-09-08T17:58:08;7.43;;;5.15;;
25319;SDS011;13256;49.012;8.610;2023-09-08T18:07:07;8.68;;;5.55;;
25319;SDS011;13256;49.012;8.610;2023-09-08T18:26:06;7.43;;;5.13;;
25319;SDS011;13256;49.012;8.610;2023-09-08T18:29:04;9.60;;;5.40;;
25319;SDS011;13256;49.012;8.610;2023-09-08T18:34:32;8.30;;;5.88;;
25319;SDS011;13256;49.012;8.610;2023-09-08T18:46:14;7.00;;;5.28;;
25319;SDS011;13256;49.012;8.610;2023-09-08T18:48:43;9.32;;;6.30;;
25319;SDS011;13256;49.012;8.610;2023-09-08T18:56:45;8.50;;;6.20;;
25319;SDS011;13256;49.012;8.610;2023-09-08T19:11:59;9.23;;;5.90;;
25319;SDS011;13256;49.012;8.610;2023-09-08T19:15:43;8.95;;;5.43;;
25319;SDS011;13256;49.012;8.610;2023-09-08T19:21:37;9.80;;;5.63;;
25319;SDS011;13256;49.012;8.610;2023-09-08T19:24:13;9.48;;;6.60;;
25319;SDS011;13256;49.012;8.610;2023-09-08T19:26:51;10.52;;;6.60;;
25319;SDS011;13256;49.012;8.610;2023-09-08T19:29:21;11.70;;;7.45;;
25319;SDS011;13256;49.012;8.610;2023-09-08T19:31:52;13.23;;;7.72;;
25319;SDS011;13256;49.012;8.610;2023-09-08T19:34:21;10.82;;;7.55;;
25319;SDS011;13256;49.012;8.610;2023-09-08T19:43:49;8.75;;;6.47;;
25319;SDS011;13256;49.012;8.610;2023-09-08T19:49:23;9.07;;;6.82;;
25319;SDS011;13256;49.012;8.610;2023-09-08T19:57:18;10.23;;;7.05;;
25319;SDS011;13256;49.012;8.610;2023-09-08T20:03:14;10.23;;;6.32;;
25319;SDS011;13256;49.012;8.610;2023-09-08T20:21:41;8.77;;;5.78;;
25319;SDS011;13256;49.012;8.610;2023-09-08T20:24:12;9.02;;;6.35;;
25319;SDS011;13256;49.012;8.610;2023-09-08T20:26:46;7.97;;;6.30;;
25319;SDS011;13256;49.012;8.610;2023-09-08T20:29:15;8.35;;;5.82;;
25319;SDS011;13256;49.012;8.610;2023-09-08T20:47:09;8.60;;;6.38;;
25319;SDS011;13256;49.012;8.610;2023-09-08T20:55:41;12.27;;;7.70;;
25319;SDS011;13256;49.012;8.610;2023-09-08T21:10:32;10.75;;;7.00;;
25319;SDS011;13256;49.012;8.610;2023-09-08T21:13:00;9.35;;;6.00;;
25319;SDS011;13256;49.012;8.610;2023-09-08T21:18:33;7.97;;;5.93;;
25319;SDS011;13256;49.012;8.610;2023-09-08T21:21:01;9.60;;;6.53;;
25319;SDS011;13256;49.012;8.610;2023-09-08T21:35:51;8.27;;;6.35;;
25319;SDS011;13256;49.012;8.610;2023-09-08T21:58:50;9.35;;;6.55;;
25319;SDS011;13256;49.012;8.610;2023-09-08T22:04:36;9.65;;;6.50;;
25319;SDS011;13256;49.012;8.610;2023-09-08T22:07:33;9.77;;;7.25;;
25319;SDS011;13256;49.012;8.610;2023-09-08T22:16:20;11.48;;;7.30;;
25319;SDS011;13256;49.012;8.610;2023-09-08T22:21:49;12.27;;;7.28;;
25319;SDS011;13256;49.012;8.610;2023-09-08T22:24:17;10.90;;;6.53;;
25319;SDS011;13256;49.012;8.610;2023-09-08T22:26:47;11.18;;;7.07;;
25319;SDS011;13256;49.012;8.610;2023-09-08T22:29:16;11.90;;;7.47;;
25319;SDS011;13256;49.012;8.610;2023-09-08T22:34:45;9.77;;;6.55;;
25319;SDS011;13256;49.012;8.610;2023-09-08T22:46:15;11.18;;;7.63;;
25319;SDS011;13256;49.012;8.610;2023-09-08T22:57:24;10.63;;;7.05;;
25319;SDS011;13256;49.012;8.610;2023-09-08T23:02:59;11.20;;;7.18;;
25319;SDS011;13256;49.012;8.610;2023-09-08T23:05:33;11.38;;;8.18;;